createdAt,value
2019-04-26T00:05:01.227Z,55.59
2019-04-26T00:10:10.349Z,55.64
2019-04-26T00:15:27.813Z,55.34
2019-04-26T00:20:31.654Z,55.48
2019-04-26T00:25:35.232Z,55.69
2019-04-26T00:30:38.815Z,55.84
2019-04-26T00:35:47.725Z,55.84
2019-04-26T00:40:47.771Z,56.06
2019-04-26T00:45:51.669Z,55.83
2019-04-26T00:50:55.245Z,55.65
2019-04-26T00:55:59.413Z,55.55
2019-04-26T01:01:03.376Z,55.39
2019-04-26T01:06:08.508Z,55.72
2019-04-26T01:11:12.071Z,55.67
2019-04-26T01:16:15.875Z,55.62
2019-04-26T01:21:20.645Z,55.79
2019-04-26T01:26:34.842Z,56.03
2019-04-26T01:31:44.197Z,56.25
2019-04-26T01:36:47.759Z,56.76
2019-04-26T01:42:08.230Z,56.56
2019-04-26T01:47:11.887Z,56.65
2019-04-26T01:52:15.576Z,56.71
2019-04-26T01:57:19.132Z,57.29
2019-04-26T02:02:27.795Z,56.91
2019-04-26T02:07:39.377Z,56.77
2019-04-26T02:12:44.327Z,56.82
2019-04-26T02:17:48.627Z,56.73
2019-04-26T02:22:59.376Z,56.92
2019-04-26T02:28:02.927Z,56.88
2019-04-26T02:33:06.545Z,56.97
2019-04-26T02:38:10.104Z,56.93
2019-04-26T02:43:13.681Z,57.63
2019-04-26T02:48:19.006Z,57.46
2019-04-26T02:53:51.653Z,57.94
2019-04-26T02:59:01.349Z,57.86
2019-04-26T03:04:04.910Z,57.87
2019-04-26T03:09:08.519Z,57.80
2019-04-26T03:14:13.700Z,58.00
2019-04-26T03:19:43.172Z,58.01
2019-04-26T03:25:08.863Z,57.93
2019-04-26T03:30:33.398Z,58.34
2019-04-26T03:35:57.063Z,58.39
2019-04-26T03:41:02.810Z,57.84
2019-04-26T03:46:21.288Z,57.52
2019-04-26T03:51:50.690Z,57.05
2019-04-26T03:57:16.568Z,56.69
2019-04-26T04:02:24.847Z,56.13
2019-04-26T04:07:36.701Z,56.00
2019-04-26T04:12:46.321Z,56.32
2019-04-26T04:17:59.032Z,55.31
2019-04-26T04:23:20.842Z,55.55
2019-04-26T04:28:49.881Z,54.53
2019-04-26T04:34:14.865Z,54.26
2019-04-26T04:39:40.876Z,54.73
2019-04-26T04:45:12.446Z,55.52
2019-04-26T04:50:20.944Z,54.93
2019-04-26T04:55:30.638Z,55.31
2019-04-26T05:00:56.077Z,55.04
2019-04-26T05:06:07.723Z,55.04
2019-04-26T05:11:14.864Z,54.71
2019-04-26T05:16:56.626Z,55.44
2019-04-26T05:22:03.313Z,54.53
2019-04-26T05:27:17.536Z,53.89
2019-04-26T05:32:30.279Z,53.74
2019-04-26T05:37:53.102Z,51.39
2019-04-26T05:43:18.168Z,37.56
2019-04-26T05:49:04.124Z,31.86
2019-04-26T05:54:37.781Z,32.92
2019-04-26T05:59:56.765Z,31.28
2019-04-26T06:05:25.920Z,29.23
2019-04-26T06:10:31.553Z,27.79
2019-04-26T06:16:16.384Z,28.52
2019-04-26T06:21:28.978Z,27.42
2019-04-26T06:26:52.951Z,26.67
2019-04-26T06:32:05.953Z,26.76
2019-04-26T06:37:16.903Z,24.23
2019-04-26T06:42:26.328Z,25.58
2019-04-26T06:47:43.363Z,21.14
2019-04-26T06:52:53.116Z,22.09
2019-04-26T06:58:22.455Z,23.67
2019-04-26T07:03:51.802Z,20.48
2019-04-26T07:09:02.325Z,21.07
2019-04-26T07:14:26.783Z,21.52
2019-04-26T07:19:51.328Z,21.65
2019-04-26T07:25:22.281Z,30.18
2019-04-26T07:30:34.807Z,32.67
2019-04-26T07:35:41.493Z,32.53
2019-04-26T07:40:52.693Z,30.64
2019-04-26T07:46:19.141Z,21.34
2019-04-26T07:51:43.241Z,18.91
2019-04-26T07:57:06.691Z,17.20
2019-04-26T08:02:48.399Z,18.21
2019-04-26T08:07:58.562Z,18.01
2019-04-26T08:13:15.151Z,16.12
2019-04-26T08:18:25.505Z,15.92
2019-04-26T08:23:41.045Z,17.73
2019-04-26T08:28:36.089Z,17.62
2019-04-26T08:33:48.739Z,24.54
2019-04-26T08:38:52.617Z,16.30
2019-04-26T08:43:59.807Z,14.49
2019-04-26T08:49:19.768Z,14.82
2019-04-26T08:54:24.891Z,15.61
2019-04-26T08:59:31.137Z,15.46
2019-04-26T09:04:36.254Z,14.39
2019-04-26T09:09:39.975Z,14.35
2019-04-26T09:14:46.637Z,14.94
2019-04-26T09:19:50.223Z,17.69
2019-04-26T09:24:59.294Z,23.35
2019-04-26T09:30:14.236Z,21.04
2019-04-26T09:35:17.830Z,24.55
2019-04-26T09:40:22.795Z,24.81
2019-04-26T09:45:37.251Z,24.42
2019-04-26T09:50:42.402Z,25.78
2019-04-26T09:55:45.982Z,24.44
2019-04-26T10:00:50.209Z,24.84
2019-04-26T10:05:55.939Z,24.86
2019-04-26T10:10:59.369Z,25.85
2019-04-26T10:16:04.557Z,26.91
2019-04-26T10:21:08.107Z,27.10
2019-04-26T10:26:11.930Z,27.84
2019-04-26T10:31:17.275Z,28.50
2019-04-26T10:36:20.768Z,28.96
2019-04-26T10:41:24.355Z,28.74
2019-04-26T10:46:29.307Z,29.27
2019-04-26T10:51:38.700Z,29.14
2019-04-26T10:56:41.609Z,28.06
2019-04-26T11:01:45.276Z,28.81
2019-04-26T11:06:48.838Z,30.17
2019-04-26T11:11:52.521Z,26.93
2019-04-26T11:16:56.089Z,28.22
2019-04-26T11:21:59.693Z,28.87
2019-04-26T11:27:05.392Z,28.03
2019-04-26T11:32:08.529Z,26.77
2019-04-26T11:37:13.448Z,26.77
2019-04-26T11:42:17.397Z,26.74
2019-04-26T11:47:22.882Z,26.85
2019-04-26T11:52:27.681Z,27.91
2019-04-26T11:57:31.347Z,27.63
2019-04-26T12:02:36.496Z,28.58
2019-04-26T12:07:44.433Z,28.64
2019-04-26T12:12:51.715Z,27.49
2019-04-26T12:17:58.720Z,27.82
2019-04-26T12:22:59.166Z,27.45
2019-04-26T12:28:06.120Z,27.91
2019-04-26T12:33:08.030Z,28.33
2019-04-26T12:38:12.121Z,28.94
2019-04-26T12:43:15.890Z,28.23
2019-04-26T12:53:34.977Z,29.10
2019-04-26T12:58:38.581Z,28.48
2019-04-26T13:03:43.706Z,27.70
2019-04-26T13:08:51.391Z,28.20
2019-04-26T13:14:00.147Z,28.63
2019-04-26T13:19:03.695Z,28.82
2019-04-26T13:24:08.037Z,30.17
2019-04-26T13:29:11.588Z,28.88
2019-04-26T13:34:15.223Z,29.37
2019-04-26T13:39:22.369Z,28.31
2019-04-26T13:44:41.872Z,28.04
2019-04-26T13:49:48.270Z,27.04
2019-04-26T13:54:55.447Z,27.79
2019-04-26T13:59:57.287Z,27.85
2019-04-26T14:05:00.831Z,25.09
2019-04-26T14:10:06.306Z,24.33
2019-04-26T14:15:10.215Z,24.08
2019-04-26T14:20:13.927Z,23.41
2019-04-26T14:25:26.947Z,23.88
2019-04-26T14:30:30.343Z,23.61
2019-04-26T14:35:33.945Z,23.71
2019-04-26T14:40:39.219Z,24.77
2019-04-26T14:45:55.351Z,24.46
2019-04-26T14:50:48.845Z,24.46
2019-04-26T14:55:54.703Z,24.31
2019-04-26T15:01:00.930Z,23.98
2019-04-26T15:06:20.566Z,23.69
2019-04-26T15:11:24.056Z,24.04
2019-04-26T15:16:27.644Z,24.42
2019-04-26T15:21:34.167Z,24.37
2019-04-26T15:26:36.544Z,24.61
2019-04-26T15:31:40.171Z,24.47
2019-04-26T15:36:47.906Z,24.04
2019-04-26T15:42:07.224Z,24.11
2019-04-26T15:47:15.406Z,24.84
2019-04-26T15:52:18.994Z,24.73
2019-04-26T15:57:24.404Z,25.93
2019-04-26T16:02:27.919Z,27.07
2019-04-26T16:07:34.229Z,27.84
2019-04-26T16:12:36.832Z,28.40
2019-04-26T16:17:41.257Z,28.18
2019-04-26T16:22:45.171Z,29.06
2019-04-26T16:27:50.315Z,31.04
2019-04-26T16:32:59.912Z,31.04
2019-04-26T16:38:22.923Z,31.55
2019-04-26T16:43:37.034Z,31.65
2019-04-26T16:48:32.098Z,32.37
2019-04-26T16:53:45.877Z,32.49
2019-04-26T16:58:44.994Z,33.10
2019-04-26T17:03:48.147Z,33.44
2019-04-26T17:08:58.753Z,33.62
2019-04-26T17:14:00.265Z,34.05
2019-04-26T17:19:02.931Z,34.63
2019-04-26T17:24:09.609Z,35.05
2019-04-26T17:29:13.420Z,35.83
2019-04-26T17:34:17.021Z,36.22
2019-04-26T17:39:22.754Z,36.84
2019-04-26T17:44:28.179Z,37.59
2019-04-26T17:49:34.539Z,38.25
2019-04-26T17:54:46.334Z,38.48
2019-04-26T17:59:47.976Z,39.13
2019-04-26T18:04:58.114Z,39.19
2019-04-26T18:09:57.048Z,39.12
2019-04-26T18:15:00.088Z,39.60
2019-04-26T18:20:07.831Z,39.98
2019-04-26T18:25:13.021Z,39.78
2019-04-26T18:30:16.398Z,40.20
2019-04-26T18:35:20.010Z,40.12
2019-04-26T18:40:23.585Z,40.35
2019-04-26T18:45:29.851Z,40.48
2019-04-26T18:50:36.387Z,40.28
2019-04-26T18:55:38.126Z,40.01
2019-04-26T19:05:47.120Z,40.68
2019-04-26T19:11:00.418Z,40.50
2019-04-26T19:15:57.756Z,40.65
2019-04-26T19:21:11.929Z,40.94
2019-04-26T19:26:15.524Z,41.15
2019-04-26T19:31:19.416Z,41.03
2019-04-26T19:36:26.171Z,41.35
2019-04-26T19:41:31.409Z,41.98
2019-04-26T19:46:45.875Z,42.15
2019-04-26T19:51:52.206Z,42.89
2019-04-26T19:57:09.439Z,42.97
2019-04-26T20:02:13.041Z,43.25
2019-04-26T20:07:16.583Z,42.77
2019-04-26T20:12:23.374Z,43.15
2019-04-26T20:17:25.442Z,43.11
2019-04-26T20:22:31.695Z,43.86
2019-04-26T20:27:34.322Z,44.56
2019-04-26T20:32:42.028Z,44.50
2019-04-26T20:37:45.215Z,44.25
2019-04-26T20:42:49.203Z,44.53
2019-04-26T20:47:55.610Z,45.67
2019-04-26T20:53:00.758Z,44.83
2019-04-26T20:58:07.064Z,45.07
2019-04-26T21:03:21.157Z,44.80
2019-04-26T21:08:14.087Z,45.38
2019-04-26T21:13:17.645Z,45.63
2019-04-26T21:18:22.959Z,46.17
2019-04-26T21:23:26.678Z,45.83
2019-04-26T21:28:43.980Z,46.61
2019-04-26T21:33:53.503Z,46.21
2019-04-26T21:39:15.235Z,46.46
2019-04-26T21:44:18.802Z,47.48
2019-04-26T21:49:24.255Z,48.47
2019-04-26T21:54:27.783Z,48.47
2019-04-26T21:59:38.587Z,48.95
2019-04-26T22:04:37.798Z,49.14
2019-04-26T22:09:55.352Z,50.30
2019-04-26T22:15:03.615Z,50.30
2019-04-26T22:20:12.989Z,50.50
2019-04-26T22:25:14.964Z,50.93
2019-04-26T22:30:22.672Z,51.29
2019-04-26T22:35:25.409Z,51.94
2019-04-26T22:40:28.980Z,52.33
2019-04-26T22:45:49.348Z,52.59
2019-04-26T22:50:58.410Z,53.62
2019-04-26T22:56:01.476Z,53.52
2019-04-26T23:01:06.277Z,54.52
2019-04-26T23:06:11.690Z,54.66
2019-04-26T23:11:14.421Z,55.15
2019-04-26T23:16:19.810Z,55.26
2019-04-26T23:21:35.748Z,55.52
2019-04-26T23:26:41.647Z,56.32
2019-04-26T23:31:44.756Z,57.41
2019-04-26T23:36:50.130Z,56.77
2019-04-26T23:41:54.075Z,58.03
2019-04-26T23:47:01.160Z,57.03
2019-04-26T23:52:03.707Z,57.86
2019-04-26T23:57:07.391Z,57.15
